Time;durP1;ratioP1;P1;durP2;ratioP2;P2;SDS_P1;SDS_P2;PMS_P1;PMS_P2;Temp;Humidity;BMP_temperature;BMP_pressure;BME280_temperature;BME280_humidity;BME280_pressure;Samples;Min_cycle;Max_cycle;Signal;HPM_P1;HPM_P2
2022/11/13 00:02:05;;;;;;;1.08;0.20;;;;;;;10.75;50.30;99051.41;5044297;28;20040;-63
2022/11/13 00:04:31;;;;;;;2.22;0.30;;;;;;;10.69;50.22;99049.31;5052633;28;20047;-62
2022/11/13 00:06:56;;;;;;;0.90;0.25;;;;;;;10.55;50.21;99023.84;5053370;28;20033;-62
2022/11/13 00:09:21;;;;;;;0.30;0.20;;;;;;;10.75;50.22;99051.41;5053565;28;20332;-63
2022/11/13 00:11:47;;;;;;;2.53;0.20;;;;;;;10.68;50.45;99046.78;5051885;28;20060;-62
2022/11/13 00:14:12;;;;;;;1.55;0.20;;;;;;;10.55;50.75;99044.41;5053217;28;20102;-63
2022/11/13 00:16:37;;;;;;;2.22;0.30;;;;;;;10.39;51.00;99035.13;5034649;28;20374;-62
2022/11/13 00:19:03;;;;;;;4.25;0.80;;;;;;;10.24;51.34;99018.63;5035217;28;20423;-62
2022/11/13 00:21:28;;;;;;;1.58;0.20;;;;;;;10.20;51.50;99023.44;5053194;28;20044;-62
2022/11/13 00:23:55;;;;;;;0.82;0.30;;;;;;;10.18;51.48;99040.59;5053296;28;20058;-63
2022/11/13 00:26:23;;;;;;;2.13;0.30;;;;;;;10.06;51.84;99026.50;5053241;28;20044;-62
2022/11/13 00:28:54;;;;;;;2.03;0.35;;;;;;;9.91;51.78;99012.72;5052213;28;20032;-61
2022/11/13 00:31:20;;;;;;;0.65;0.10;;;;;;;9.77;51.20;99019.31;5053183;28;20029;-62
2022/11/13 00:33:45;;;;;;;1.35;0.20;;;;;;;9.82;52.20;99035.78;5046455;28;20052;-63
2022/11/13 00:36:17;;;;;;;4.30;0.30;;;;;;;9.75;51.48;99046.19;5033540;28;20091;-62
2022/11/13 00:38:43;;;;;;;1.48;0.17;;;;;;;9.65;51.69;99025.78;5048147;28;20025;-62
2022/11/13 00:41:08;;;;;;;0.65;0.20;;;;;;;9.63;51.59;99029.41;5051815;28;20451;-63
2022/11/13 00:43:34;;;;;;;2.20;0.20;;;;;;;9.61;51.62;99034.06;5052864;28;20049;-61
2022/11/13 00:46:00;;;;;;;0.93;0.40;;;;;;;9.60;51.82;99036.88;5052239;28;20064;-62
2022/11/13 00:48:25;;;;;;;1.52;0.73;;;;;;;9.54;51.98;99032.91;5049954;28;20033;-62
2022/11/13 00:50:51;;;;;;;3.22;0.30;;;;;;;9.38;51.92;98989.84;5051767;28;20033;-62
2022/11/13 00:53:17;;;;;;;0.55;0.20;;;;;;;9.58;51.85;99012.94;5036669;28;20029;-62
2022/11/13 00:55:43;;;;;;;0.80;0.22;;;;;;;9.77;51.51;99038.03;5039438;28;20029;-62
2022/11/13 00:58:09;;;;;;;1.55;0.10;;;;;;;9.79;51.36;99043.25;5053028;28;20024;-63
2022/11/13 01:00:35;;;;;;;0.30;0.10;;;;;;;9.82;51.12;99048.31;5052620;28;20029;-62
2022/11/13 01:03:00;;;;;;;1.52;0.20;;;;;;;9.96;50.95;99053.25;5050968;28;20095;-62
2022/11/13 01:05:26;;;;;;;0.98;0.20;;;;;;;9.99;50.98;99052.97;5052843;28;20060;-61
2022/11/13 01:07:52;;;;;;;1.00;0.15;;;;;;;10.04;51.38;99039.19;5052444;28;20040;-62
2022/11/13 01:10:18;;;;;;;0.93;0.20;;;;;;;10.05;50.93;99032.84;5049130;28;20417;-62
2022/11/13 01:12:43;;;;;;;0.20;0.10;;;;;;;10.12;50.42;99043.84;5032942;28;20037;-62
2022/11/13 01:15:09;;;;;;;0.98;0.20;;;;;;;10.18;50.57;99044.13;5050281;28;20444;-61
2022/11/13 01:17:35;;;;;;;0.68;0.20;;;;;;;10.14;50.32;99045.41;5052572;28;20033;-62
2022/11/13 01:20:00;;;;;;;0.75;0.30;;;;;;;10.14;50.37;99056.09;5052264;28;20029;-62
2022/11/13 01:22:26;;;;;;;1.42;0.20;;;;;;;10.20;50.54;99036.81;5052408;28;20451;-62
2022/11/13 01:24:51;;;;;;;1.05;0.30;;;;;;;10.25;50.54;99052.44;5052405;28;20040;-62
2022/11/13 01:27:17;;;;;;;2.15;0.10;;;;;;;10.28;50.40;99041.47;5052280;28;20039;-63
2022/11/13 01:29:42;;;;;;;1.15;0.20;;;;;;;10.29;50.24;99045.81;5035176;28;20428;-63
2022/11/13 01:32:08;;;;;;;0.50;0.20;;;;;;;10.11;50.87;99026.09;5032268;28;20033;-62
2022/11/13 01:34:33;;;;;;;1.40;0.30;;;;;;;10.31;50.33;99041.16;5032530;28;20167;-63
2022/11/13 01:36:58;;;;;;;0.10;0.10;;;;;;;10.29;50.11;99058.34;5032263;28;20371;-62
2022/11/13 01:39:24;;;;;;;1.77;0.25;;;;;;;10.22;49.98;99035.81;5044106;28;20083;-62
2022/11/13 01:41:50;;;;;;;1.85;0.22;;;;;;;10.10;49.74;99038.63;5051652;28;20036;-62
2022/11/13 01:44:18;;;;;;;2.22;0.40;;;;;;;9.96;50.20;99031.03;5052364;28;20467;-62
2022/11/13 01:46:49;;;;;;;1.40;0.20;;;;;;;9.85;49.95;99040.84;5026968;28;20034;-63
2022/11/13 01:49:29;;;;;;;0.50;0.20;;;;;;;9.80;50.18;99042.28;5032585;28;20060;-62
2022/11/13 01:52:02;;;;;;;0.68;0.20;;;;;;;9.76;50.47;99036.34;5032116;28;20460;-63
2022/11/13 01:54:33;;;;;;;2.05;0.40;;;;;;;9.83;50.42;99026.78;5044791;28;20021;-62
2022/11/13 01:57:01;;;;;;;1.25;0.40;;;;;;;9.84;50.05;99025.78;5051988;28;20147;-63
2022/11/13 01:59:31;;;;;;;0.50;0.10;;;;;;;9.88;50.08;99035.22;5034123;28;20037;-63
2022/11/13 02:01:57;;;;;;;0.40;0.20;;;;;;;9.96;50.34;99037.19;5032129;28;20037;-62
2022/11/13 02:04:24;;;;;;;2.22;0.40;;;;;;;10.01;49.86;99051.03;5035667;28;20034;-62
2022/11/13 02:07:20;;;;;;;2.72;0.28;;;;;;;10.16;50.71;99038.06;5036017;28;20029;-63
2022/11/13 02:09:48;;;;;;;1.98;0.20;;;;;;;10.09;50.42;99031.59;5030633;28;20060;-62
2022/11/13 02:12:20;;;;;;;1.42;0.30;;;;;;;10.05;50.40;99024.81;5035177;28;20099;-62
2022/11/13 02:14:51;;;;;;;0.50;0.20;;;;;;;10.01;50.42;99020.75;5035099;28;20300;-63
2022/11/13 02:17:21;;;;;;;4.72;0.20;;;;;;;9.93;50.20;99009.91;5050933;28;20044;-62
2022/11/13 02:19:54;;;;;;;0.60;0.20;;;;;;;9.85;50.08;98983.88;5054171;28;20460;-62
2022/11/13 02:22:45;;;;;;;2.15;0.30;;;;;;;9.98;49.72;98996.97;5054729;28;20033;-62
2022/11/13 02:25:12;;;;;;;0.60;0.08;;;;;;;9.95;49.69;99013.28;5054416;28;20357;-61
2022/11/13 02:27:46;;;;;;;0.75;0.20;;;;;;;9.94;49.52;99007.09;5055304;28;20032;-61
2022/11/13 02:30:12;;;;;;;0.73;0.30;;;;;;;9.86;49.75;99004.28;5038090;28;20083;-62
2022/11/13 02:32:49;;;;;;;0.70;0.20;;;;;;;9.90;49.98;99014.56;5038182;28;20033;-61
2022/11/13 02:35:20;;;;;;;2.65;0.20;;;;;;;9.93;49.79;99015.28;5049148;28;20036;-63
2022/11/13 02:37:45;;;;;;;3.00;0.10;;;;;;;9.81;50.09;99018.06;5054446;28;20447;-63
2022/11/13 02:40:12;;;;;;;1.60;0.22;;;;;;;9.82;50.31;99009.06;5055555;28;20021;-63
2022/11/13 02:42:38;;;;;;;0.50;0.20;;;;;;;9.84;50.91;99012.44;5055176;28;20095;-63
2022/11/13 02:45:05;;;;;;;1.52;0.32;;;;;;;9.94;51.25;98995.56;5054962;28;20061;-62
2022/11/13 02:47:31;;;;;;;1.05;0.30;;;;;;;10.00;50.97;99003.00;5037668;28;20033;-62
2022/11/13 02:49:56;;;;;;;1.35;0.30;;;;;;;9.88;51.56;99010.31;5036989;28;20352;-63
2022/11/13 02:52:22;;;;;;;0.93;0.20;;;;;;;9.70;52.52;99002.97;5047775;28;20067;-62
2022/11/13 02:54:47;;;;;;;0.90;0.30;;;;;;;9.67;53.03;99007.78;5017940;28;20053;-62
2022/11/13 02:57:12;;;;;;;2.10;0.20;;;;;;;9.50;53.82;98999.44;5034897;28;20021;-62
2022/11/13 02:59:38;;;;;;;0.75;0.10;;;;;;;9.52;53.77;98980.59;5034093;28;20450;-62
2022/11/13 03:02:03;;;;;;;0.90;0.22;;;;;;;9.53;54.04;98975.13;5034933;28;20030;-61
2022/11/13 03:04:29;;;;;;;2.08;0.30;;;;;;;9.60;54.09;98978.91;5034591;28;20448;-63
2022/11/13 03:06:54;;;;;;;2.75;0.20;;;;;;;9.57;54.25;98981.88;5034506;28;20021;-62
2022/11/13 03:09:20;;;;;;;0.57;0.20;;;;;;;9.58;55.10;98986.22;5041791;28;20107;-63
2022/11/13 03:11:45;;;;;;;0.50;0.30;;;;;;;9.68;53.95;98974.72;5034049;28;20085;-61
2022/11/13 03:14:11;;;;;;;2.17;0.40;;;;;;;9.57;53.92;98984.53;5034609;28;20060;-62
2022/11/13 03:16:36;;;;;;;1.13;0.20;;;;;;;9.60;53.77;98986.09;5033635;28;20033;-61
2022/11/13 03:19:02;;;;;;;1.05;0.52;;;;;;;9.59;54.47;98998.59;5034723;28;20030;-63
2022/11/13 03:21:30;;;;;;;3.65;0.20;;;;;;;9.54;53.88;99003.53;5033913;28;20034;-62
2022/11/13 03:23:56;;;;;;;3.30;0.68;;;;;;;9.53;53.74;98993.00;5034299;28;20329;-61
2022/11/13 03:26:21;;;;;;;1.50;0.40;;;;;;;9.47;53.59;98984.53;5053429;28;20025;-62
2022/11/13 03:28:47;;;;;;;0.82;0.30;;;;;;;9.54;53.30;98987.50;5039230;28;20032;-62
2022/11/13 03:31:12;;;;;;;0.52;0.20;;;;;;;9.52;53.23;98992.13;5054446;28;20036;-61
2022/11/13 03:33:38;;;;;;;0.68;0.25;;;;;;;9.53;53.63;98998.34;5054074;28;20029;-62
2022/11/13 03:36:04;;;;;;;2.67;0.30;;;;;;;9.48;53.35;99010.25;5052363;28;20158;-62
2022/11/13 03:38:29;;;;;;;0.20;0.15;;;;;;;9.49;53.27;99003.09;5053839;28;20333;-61
2022/11/13 03:40:55;;;;;;;3.65;0.30;;;;;;;9.42;53.33;98988.63;5053238;28;20069;-63
2022/11/13 03:43:21;;;;;;;1.77;0.10;;;;;;;9.38;53.21;98995.19;5052482;28;20057;-61
2022/11/13 03:45:47;;;;;;;2.00;0.35;;;;;;;9.39;52.52;98996.88;5054008;28;20048;-62
2022/11/13 03:48:14;;;;;;;0.82;0.30;;;;;;;9.48;52.50;99001.41;5054113;28;20037;-62
2022/11/13 03:50:42;;;;;;;0.68;0.20;;;;;;;9.48;52.34;99006.75;5053891;28;20463;-61
2022/11/13 03:53:08;;;;;;;1.17;0.22;;;;;;;9.43;52.64;99014.34;5053998;28;20068;-61
2022/11/13 03:55:33;;;;;;;2.63;0.25;;;;;;;9.49;52.12;98984.41;5052651;28;20053;-62
2022/11/13 03:57:59;;;;;;;2.72;0.10;;;;;;;9.49;51.32;99000.44;5053634;28;20086;-61
2022/11/13 04:00:24;;;;;;;0.65;0.13;;;;;;;9.41;51.24;99001.09;5052466;28;20528;-64
2022/11/13 04:02:50;;;;;;;1.13;0.38;;;;;;;9.31;51.36;98986.91;5052065;28;20028;-64
2022/11/13 04:05:15;;;;;;;0.40;0.20;;;;;;;9.21;51.60;98986.00;5052244;28;20044;-63
2022/11/13 04:07:41;;;;;;;0.43;0.20;;;;;;;9.26;50.88;98992.63;5053084;28;20052;-61
2022/11/13 04:10:06;;;;;;;0.70;0.30;;;;;;;8.99;51.41;98969.19;5053168;28;20040;-62
2022/11/13 04:12:32;;;;;;;1.52;0.40;;;;;;;8.80;51.95;98977.97;5052078;28;20041;-62
2022/11/13 04:14:57;;;;;;;2.13;0.20;;;;;;;8.52;51.86;98964.38;5052519;28;20029;-62
2022/11/13 04:17:23;;;;;;;0.88;0.22;;;;;;;8.69;52.70;99011.78;5053486;28;20087;-62
2022/11/13 04:19:48;;;;;;;1.30;0.30;;;;;;;8.72;51.82;99003.53;5050347;28;20064;-61
2022/11/13 04:22:13;;;;;;;2.17;0.28;;;;;;;8.85;51.24;99010.44;5052724;28;20448;-61
2022/11/13 04:24:39;;;;;;;2.17;0.30;;;;;;;8.90;51.39;99009.09;5053281;28;20037;-62
2022/11/13 04:27:04;;;;;;;3.05;0.40;;;;;;;8.92;51.08;99029.47;5051005;28;20431;-62
2022/11/13 04:29:30;;;;;;;2.08;0.40;;;;;;;8.96;50.72;99034.41;5053296;28;20033;-62
2022/11/13 04:31:55;;;;;;;3.47;0.35;;;;;;;8.96;50.44;99044.22;5053560;28;20037;-62
2022/11/13 04:34:20;;;;;;;1.35;0.10;;;;;;;8.95;50.68;99039.88;5052168;28;20033;-62
2022/11/13 04:36:46;;;;;;;0.60;0.20;;;;;;;8.93;50.50;99024.00;5051997;28;20394;-63
2022/11/13 04:39:11;;;;;;;2.17;0.38;;;;;;;8.82;50.89;99032.06;5053204;28;20064;-63
2022/11/13 04:44:21;;;;;;;1.95;0.50;;;;;;;8.43;52.15;98989.97;5053280;28;20474;-61
2022/11/13 04:46:46;;;;;;;2.38;0.40;;;;;;;8.51;52.56;99032.03;5052942;28;20037;-62
2022/11/13 04:49:12;;;;;;;2.63;0.57;;;;;;;8.54;51.96;99032.59;5050008;28;20075;-62
2022/11/13 04:51:37;;;;;;;1.63;0.20;;;;;;;8.40;52.27;99047.09;5036758;28;20037;-62
2022/11/13 04:54:02;;;;;;;2.38;0.25;;;;;;;8.35;53.08;99041.28;5033087;28;20037;-63
2022/11/13 04:56:28;;;;;;;2.28;0.43;;;;;;;8.36;53.05;99039.50;5032758;28;20095;-63
2022/11/13 04:58:53;;;;;;;1.63;0.40;;;;;;;8.44;53.17;99026.34;5033039;28;20029;-63
2022/11/13 05:01:18;;;;;;;1.33;0.40;;;;;;;8.59;52.15;99019.75;5032700;28;20029;-62
2022/11/13 05:03:44;;;;;;;1.73;0.38;;;;;;;8.57;52.73;99034.19;5031769;28;20021;-61
2022/11/13 05:06:10;;;;;;;4.40;0.30;;;;;;;8.57;52.37;99036.84;5032967;28;20116;-62
2022/11/13 05:08:36;;;;;;;4.00;0.82;;;;;;;8.58;52.62;99031.41;5032608;28;20392;-61
2022/11/13 05:11:02;;;;;;;1.33;0.30;;;;;;;8.63;52.30;99039.00;5050837;28;20044;-63
2022/11/13 05:13:35;;;;;;;4.70;0.60;;;;;;;8.76;52.66;99033.44;5036231;28;20061;-65
2022/11/13 05:16:09;;;;;;;0.68;0.30;;;;;;;8.83;52.07;99050.63;5032746;28;20401;-62
2022/11/13 05:18:36;;;;;;;0.52;0.20;;;;;;;8.88;52.06;99074.25;5051288;28;20040;-63
2022/11/13 05:21:03;;;;;;;2.67;0.40;;;;;;;8.92;52.46;99081.00;5052407;28;20090;-62
2022/11/13 05:23:28;;;;;;;0.60;0.20;;;;;;;8.90;53.08;99072.28;5051799;28;20032;-65
2022/11/13 05:26:02;;;;;;;1.33;0.40;;;;;;;8.90;53.96;99053.59;5052753;28;20090;-61
2022/11/13 05:28:27;;;;;;;3.65;0.40;;;;;;;8.90;54.34;99072.28;5038729;28;20025;-62
2022/11/13 05:30:53;;;;;;;1.10;0.30;;;;;;;8.84;54.72;99051.47;5035041;28;20041;-61
2022/11/13 05:33:18;;;;;;;1.17;0.30;;;;;;;8.78;55.01;99076.84;5052205;28;20029;-61
2022/11/13 05:35:43;;;;;;;3.28;0.30;;;;;;;8.74;54.48;99073.63;5052306;28;20044;-61
2022/11/13 05:38:09;;;;;;;1.50;0.20;;;;;;;8.75;54.55;99069.97;5054091;28;20029;-61
2022/11/13 05:40:34;;;;;;;2.58;0.40;;;;;;;8.95;54.32;99072.75;5056333;28;20146;-62
2022/11/13 05:43:00;;;;;;;1.38;0.38;;;;;;;9.33;53.39;99068.56;5053876;28;20052;-65
2022/11/13 05:45:25;;;;;;;1.42;0.30;;;;;;;10.33;51.10;99073.13;5050454;28;20037;-61
2022/11/13 05:47:51;;;;;;;1.55;0.40;;;;;;;11.29;47.85;99064.22;5035165;28;20037;-62
2022/11/13 05:50:16;;;;;;;1.85;0.30;;;;;;;11.53;46.84;99067.38;5036404;28;20025;-62
2022/11/13 05:52:42;;;;;;;0.70;0.30;;;;;;;11.25;47.23;99065.50;5036015;28;20372;-63
2022/11/13 05:55:08;;;;;;;2.28;0.20;;;;;;;10.85;48.21;99075.50;5036192;28;20117;-62
2022/11/13 05:57:33;;;;;;;2.40;0.40;;;;;;;10.50;49.23;99098.38;5036318;28;20032;-61
2022/11/13 05:59:58;;;;;;;2.58;0.68;;;;;;;10.16;50.90;99128.16;5035583;28;20029;-64
2022/11/13 06:02:24;;;;;;;0.68;0.40;;;;;;;9.78;52.73;99135.97;5036115;28;20456;-61
2022/11/13 06:04:49;;;;;;;1.50;0.47;;;;;;;9.58;54.67;99157.25;5019110;28;20037;-62
2022/11/13 06:07:15;;;;;;;2.78;0.30;;;;;;;9.24;55.12;99137.97;5036091;28;20029;-63
2022/11/13 06:09:40;;;;;;;0.55;0.20;;;;;;;9.21;55.57;99164.94;5036956;28;20436;-62
2022/11/13 06:12:06;;;;;;;1.42;0.40;;;;;;;9.42;55.88;99152.41;5051710;28;20041;-64
2022/11/13 06:14:31;;;;;;;1.17;0.52;;;;;;;10.37;53.42;99181.59;5038527;28;20029;-65
2022/11/13 06:16:57;;;;;;;2.40;0.38;;;;;;;10.68;52.33;99170.78;5056159;28;20113;-63
2022/11/13 06:19:22;;;;;;;1.05;0.40;;;;;;;10.57;51.90;99162.88;5054844;28;20378;-63
2022/11/13 06:21:48;;;;;;;1.33;0.25;;;;;;;10.12;52.98;99185.59;5056104;28;20089;-62
2022/11/13 06:24:13;;;;;;;2.20;0.20;;;;;;;11.25;50.26;99191.44;5024575;28;20440;-62
2022/11/13 06:26:39;;;;;;;1.63;0.17;;;;;;;14.95;42.05;99178.59;5034513;28;20120;-63
2022/11/13 06:29:07;;;;;;;0.25;0.20;;;;;;;18.45;35.30;99185.06;5037310;28;20029;-63
2022/11/13 06:31:34;;;;;;;1.20;0.50;;;;;;;20.93;30.52;99190.44;5055827;28;20029;-65
2022/11/13 06:34:00;;;;;;;4.15;0.60;;;;;;;22.87;27.35;99192.06;5054704;28;20120;-61
2022/11/13 06:36:28;;;;;;;1.23;0.50;;;;;;;24.74;25.21;99191.22;5054512;28;20025;-62
2022/11/13 06:38:54;;;;;;;1.40;0.55;;;;;;;25.90;22.92;99189.13;5055602;28;20028;-63
2022/11/13 06:41:23;;;;;;;0.80;0.35;;;;;;;26.86;21.68;99184.19;5055648;28;20060;-63
2022/11/13 06:43:49;;;;;;;2.53;0.40;;;;;;;26.78;20.98;99193.66;5053899;28;20045;-63
2022/11/13 06:46:19;;;;;;;1.25;0.60;;;;;;;24.82;23.13;99220.19;5054979;28;20060;-61
2022/11/13 06:48:45;;;;;;;2.60;0.20;;;;;;;21.52;26.20;99208.88;5039980;28;20463;-62
2022/11/13 06:51:15;;;;;;;1.00;0.30;;;;;;;21.37;26.29;99222.72;5034210;28;20475;-62
2022/11/13 06:53:40;;;;;;;1.92;0.20;;;;;;;21.90;25.68;99204.66;5035291;28;20029;-62
2022/11/13 06:56:07;;;;;;;1.17;0.30;;;;;;;21.62;25.99;99219.34;5051156;28;20033;-62
2022/11/13 06:58:32;;;;;;;1.00;0.30;;;;;;;21.17;26.71;99229.00;5042544;28;20079;-61
2022/11/13 07:01:07;;;;;;;1.35;0.45;;;;;;;21.18;27.06;99227.09;5034198;28;20041;-62
2022/11/13 07:03:33;;;;;;;2.78;0.57;;;;;;;21.44;26.18;99230.88;5035216;28;20025;-62
2022/11/13 07:06:04;;;;;;;0.90;0.30;;;;;;;21.36;26.46;99231.94;5044149;28;20055;-61
2022/11/13 07:08:30;;;;;;;0.40;0.30;;;;;;;21.14;26.31;99231.28;5055000;28;20037;-60
2022/11/13 07:10:57;;;;;;;2.10;0.30;;;;;;;20.48;27.30;99239.06;5054964;28;20482;-62
2022/11/13 07:13:23;;;;;;;2.00;0.32;;;;;;;18.94;29.49;99247.72;5046401;28;20134;-62
2022/11/13 07:15:49;;;;;;;0.77;0.38;;;;;;;17.19;31.97;99246.13;5034421;28;20128;-61
2022/11/13 07:18:15;;;;;;;1.10;0.30;;;;;;;16.28;33.35;99243.97;5050501;28;20245;-61
2022/11/13 07:20:40;;;;;;;0.60;0.30;;;;;;;15.72;34.56;99263.66;5054620;28;20481;-61
2022/11/13 07:23:06;;;;;;;0.45;0.30;;;;;;;14.74;35.59;99251.84;5053465;28;20768;-64
2022/11/13 07:25:31;;;;;;;1.02;0.20;;;;;;;13.50;37.21;99246.69;5054614;28;20037;-61
2022/11/13 07:27:57;;;;;;;1.00;0.40;;;;;;;12.86;38.61;99233.38;5049061;28;20056;-60
2022/11/13 07:30:22;;;;;;;0.35;0.20;;;;;;;12.61;39.17;99262.66;5034430;28;20041;-62
2022/11/13 07:32:48;;;;;;;0.28;0.17;;;;;;;12.48;39.41;99261.19;5034447;28;20357;-61
2022/11/13 07:35:15;;;;;;;2.50;0.20;;;;;;;12.39;39.57;99270.13;5034188;28;20033;-61
2022/11/13 07:37:41;;;;;;;1.00;0.38;;;;;;;12.10;40.05;99279.19;5034231;28;20033;-61
2022/11/13 07:40:08;;;;;;;0.85;0.20;;;;;;;11.82;40.74;99276.41;5034287;28;20087;-64
2022/11/13 07:42:33;;;;;;;1.50;0.20;;;;;;;11.55;41.04;99274.50;5034310;28;20053;-61
2022/11/13 07:44:59;;;;;;;0.73;0.20;;;;;;;11.18;42.01;99284.94;5016914;28;20048;-61
2022/11/13 07:47:25;;;;;;;0.50;0.25;;;;;;;10.84;42.76;99276.47;5036639;28;20045;-62
2022/11/13 07:49:51;;;;;;;1.30;0.35;;;;;;;10.50;43.70;99275.03;5052748;28;20044;-62
2022/11/13 07:52:16;;;;;;;2.72;0.32;;;;;;;10.45;43.85;99278.09;5041652;28;20033;-61
2022/11/13 07:54:42;;;;;;;0.13;0.10;;;;;;;10.43;43.14;99258.66;5034035;28;20030;-62
2022/11/13 07:57:07;;;;;;;2.10;0.20;;;;;;;10.65;43.51;99278.16;5034688;28;20033;-65
2022/11/13 07:59:33;;;;;;;0.15;0.10;;;;;;;10.82;42.90;99262.38;5033867;28;20103;-62
2022/11/13 08:01:58;;;;;;;0.70;0.30;;;;;;;10.96;42.60;99272.69;5032303;28;20432;-61
2022/11/13 08:04:24;;;;;;;1.60;0.30;;;;;;;11.06;42.31;99292.28;5033710;28;20109;-61
2022/11/13 08:06:49;;;;;;;0.82;0.20;;;;;;;10.93;43.09;99274.78;5051659;28;20040;-61
2022/11/13 08:09:15;;;;;;;0.30;0.20;;;;;;;10.87;42.85;99269.00;5034090;28;20124;-61
2022/11/13 08:11:40;;;;;;;0.90;0.22;;;;;;;10.80;43.34;99288.44;5043542;28;20061;-60
2022/11/13 08:14:05;;;;;;;1.70;0.52;;;;;;;10.60;43.54;99262.50;5053785;28;20391;-61
2022/11/13 08:16:31;;;;;;;0.20;0.20;;;;;;;10.55;44.48;99266.56;5052651;28;20063;-60
2022/11/13 08:18:56;;;;;;;1.00;0.32;;;;;;;10.53;44.78;99289.94;5045018;28;20033;-62
2022/11/13 08:21:22;;;;;;;1.35;0.35;;;;;;;10.51;44.68;99292.78;5032423;28;20033;-61
2022/11/13 08:23:49;;;;;;;2.97;0.20;;;;;;;10.37;44.67;99275.25;5032971;28;20096;-62
2022/11/13 08:26:16;;;;;;;0.50;0.30;;;;;;;10.48;44.92;99293.03;5033241;28;20048;-60
2022/11/13 08:28:41;;;;;;;3.83;0.50;;;;;;;10.40;44.52;99296.41;5051171;28;20033;-62
2022/11/13 08:31:12;;;;;;;1.05;0.32;;;;;;;10.24;45.39;99310.22;5053264;28;20147;-61
2022/11/13 08:33:37;;;;;;;1.52;0.30;;;;;;;9.99;45.20;99276.78;5052597;28;20057;-61
2022/11/13 08:36:03;;;;;;;1.70;0.40;;;;;;;10.20;45.08;99315.03;5053416;28;20129;-61
2022/11/13 08:38:28;;;;;;;3.63;0.68;;;;;;;10.20;45.57;99311.50;5053159;28;20044;-62
2022/11/13 08:40:58;;;;;;;1.02;0.55;;;;;;;10.34;45.63;99316.50;5048540;28;20028;-63
2022/11/13 08:43:24;;;;;;;2.60;0.55;;;;;;;10.45;45.56;99315.56;5035266;28;20041;-62
2022/11/13 08:45:50;;;;;;;0.50;0.40;;;;;;;10.44;45.06;99305.00;5033018;28;20544;-61
2022/11/13 08:48:15;;;;;;;0.88;0.40;;;;;;;10.65;45.32;99320.13;5049336;28;20035;-62
2022/11/13 08:50:42;;;;;;;0.50;0.35;;;;;;;10.77;44.65;99314.53;5052130;28;20041;-61
2022/11/13 08:53:07;;;;;;;1.25;0.50;;;;;;;10.98;44.68;99324.28;5040128;28;20045;-61
2022/11/13 08:55:33;;;;;;;0.82;0.38;;;;;;;11.13;44.12;99323.88;5032588;28;20044;-62
2022/11/13 08:58:00;;;;;;;0.60;0.30;;;;;;;10.99;43.81;99320.63;5031515;28;20345;-61
2022/11/13 09:00:27;;;;;;;2.10;0.40;;;;;;;10.85;44.66;99337.06;5032320;28;20033;-63
2022/11/13 09:02:54;;;;;;;2.05;0.25;;;;;;;10.83;45.17;99339.06;5031229;28;20057;-62
2022/11/13 09:05:20;;;;;;;3.08;0.28;;;;;;;10.86;45.16;99334.28;5051144;28;20068;-61
2022/11/13 09:07:45;;;;;;;1.95;0.20;;;;;;;10.94;45.26;99346.13;5036984;28;20072;-62
2022/11/13 09:10:11;;;;;;;2.63;0.28;;;;;;;10.85;45.48;99340.63;5032818;28;20029;-66
2022/11/13 09:12:38;;;;;;;0.80;0.30;;;;;;;10.70;45.64;99358.91;5043396;28;20033;-61
2022/11/13 09:15:04;;;;;;;1.40;0.50;;;;;;;10.37;46.34;99334.13;5052377;28;20128;-61
2022/11/13 09:17:30;;;;;;;0.88;0.50;;;;;;;10.35;46.82;99357.47;5051780;28;20417;-62
2022/11/13 09:19:55;;;;;;;1.10;0.30;;;;;;;10.39;46.47;99328.59;5052399;28;20041;-61
2022/11/13 09:22:20;;;;;;;1.85;0.30;;;;;;;10.41;46.31;99342.72;5051659;28;20469;-61
2022/11/13 09:24:46;;;;;;;2.80;0.30;;;;;;;10.44;46.44;99327.25;5051994;28;20412;-61
2022/11/13 09:27:11;;;;;;;1.63;0.30;;;;;;;10.50;45.62;99339.25;5039467;28;20366;-64
2022/11/13 09:29:37;;;;;;;1.92;0.40;;;;;;;10.75;45.44;99350.47;5032371;28;20064;-62
2022/11/13 09:32:02;;;;;;;0.25;0.20;;;;;;;10.95;45.07;99348.69;5041306;28;20037;-61
2022/11/13 09:34:28;;;;;;;0.20;0.20;;;;;;;11.03;44.13;99351.50;5052161;28;20072;-62
2022/11/13 09:36:54;;;;;;;1.58;0.30;;;;;;;10.75;44.09;99351.31;5052109;28;20029;-62
2022/11/13 09:39:19;;;;;;;2.78;0.20;;;;;;;10.68;44.49;99365.38;5052177;28;20029;-61
2022/11/13 09:41:52;;;;;;;0.60;0.20;;;;;;;10.63;44.67;99363.94;5051783;28;20036;-61
2022/11/13 09:44:48;;;;;;;2.97;0.50;;;;;;;10.61;44.87;99362.41;5050358;28;20424;-63
2022/11/13 09:47:29;;;;;;;3.17;0.22;;;;;;;10.64;44.45;99378.19;5036071;28;20058;-63
2022/11/13 09:50:04;;;;;;;2.92;0.60;;;;;;;10.35;45.01;99381.53;5014701;28;20368;-60
2022/11/13 09:52:37;;;;;;;0.93;0.50;;;;;;;10.31;44.88;99383.66;5047646;28;20037;-61
2022/11/13 09:55:03;;;;;;;2.33;0.40;;;;;;;10.16;45.30;99377.81;5051755;28;20258;-60
2022/11/13 09:57:41;;;;;;;1.95;0.35;;;;;;;10.27;45.30;99409.00;5050575;28;20037;-63
2022/11/13 10:00:18;;;;;;;0.50;0.20;;;;;;;10.34;44.54;99385.19;5037236;28;20119;-61
2022/11/13 10:03:03;;;;;;;1.95;0.30;;;;;;;10.34;44.54;99390.53;5031743;28;20476;-65
2022/11/13 10:05:46;;;;;;;1.13;0.20;;;;;;;10.43;44.40;99400.50;5031875;28;20088;-63
2022/11/13 10:08:18;;;;;;;1.48;0.40;;;;;;;10.20;45.12;99414.00;5031029;28;20439;-61
2022/11/13 10:11:21;;;;;;;2.22;0.20;;;;;;;10.23;45.28;99434.28;5036184;28;20036;-66
2022/11/13 10:13:51;;;;;;;0.65;0.30;;;;;;;10.07;46.00;99434.75;5044138;28;20440;-60
2022/11/13 10:16:34;;;;;;;1.75;0.30;;;;;;;9.89;46.59;99448.72;5030633;28;20387;-62
2022/11/13 10:19:10;;;;;;;0.70;0.30;;;;;;;9.65;47.83;99442.75;5037698;28;20037;-63
2022/11/13 10:21:44;;;;;;;0.40;0.30;;;;;;;9.29;48.95;99434.97;5051602;28;20029;-61
2022/11/13 10:24:17;;;;;;;2.88;0.50;;;;;;;8.98;49.33;99448.97;5053284;28;20032;-60
2022/11/13 10:26:43;;;;;;;1.02;0.40;;;;;;;8.48;50.35;99452.81;5055294;28;20048;-62
2022/11/13 10:29:17;;;;;;;1.17;0.22;;;;;;;8.29;50.64;99448.03;5054909;28;20367;-61
2022/11/13 10:31:42;;;;;;;1.80;0.25;;;;;;;8.21;51.07;99466.47;5039518;28;20030;-62
2022/11/13 10:34:09;;;;;;;0.63;0.30;;;;;;;8.15;50.97;99465.13;5035271;28;20304;-60
2022/11/13 10:36:49;;;;;;;2.45;0.30;;;;;;;8.19;50.76;99461.25;5033899;28;20030;-62
2022/11/13 10:39:14;;;;;;;1.27;0.35;;;;;;;8.10;50.51;99475.28;5036389;28;20040;-61
2022/11/13 10:41:51;;;;;;;3.33;0.40;;;;;;;7.88;50.48;99449.41;5035493;28;20033;-61
2022/11/13 10:44:29;;;;;;;0.60;0.30;;;;;;;8.02;50.05;99464.38;5035248;28;20095;-62
2022/11/13 10:47:19;;;;;;;1.88;0.20;;;;;;;8.17;49.89;99476.50;5034860;28;20044;-62
2022/11/13 10:49:44;;;;;;;1.00;0.30;;;;;;;8.22;49.89;99478.00;5037804;28;20022;-61
2022/11/13 10:52:19;;;;;;;3.70;0.30;;;;;;;8.33;50.17;99472.69;5054838;28;20032;-61
2022/11/13 10:54:46;;;;;;;0.50;0.20;;;;;;;8.24;49.80;99492.06;5055309;28;20056;-62
2022/11/13 10:57:24;;;;;;;1.98;0.47;;;;;;;8.27;50.22;99481.16;5054993;28;20056;-60
2022/11/13 10:59:50;;;;;;;1.88;0.40;;;;;;;8.07;50.33;99488.84;5039123;28;20033;-61
2022/11/13 11:02:23;;;;;;;0.60;0.40;;;;;;;7.97;50.41;99483.38;5035605;28;20043;-61
2022/11/13 11:04:49;;;;;;;2.17;0.35;;;;;;;7.94;50.26;99493.41;5052300;28;20028;-61
2022/11/13 11:07:17;;;;;;;1.30;0.30;;;;;;;7.94;50.75;99477.41;5054996;28;20440;-62
2022/11/13 11:09:45;;;;;;;0.77;0.30;;;;;;;7.93;50.32;99489.03;5040587;28;20415;-60
2022/11/13 11:12:22;;;;;;;1.35;0.47;;;;;;;8.02;50.45;99491.84;5033568;28;20032;-60
2022/11/13 11:14:57;;;;;;;3.17;0.47;;;;;;;8.14;50.57;99495.41;5033711;28;20033;-62
2022/11/13 11:17:53;;;;;;;2.27;0.30;;;;;;;8.32;50.09;99489.66;5033784;28;20037;-61
2022/11/13 11:20:47;;;;;;;1.35;0.20;;;;;;;8.43;49.74;99508.34;5053105;28;20304;-62
2022/11/13 11:23:36;;;;;;;1.05;0.30;;;;;;;8.41;49.71;99483.59;5054371;28;20044;-61
2022/11/13 11:26:07;;;;;;;1.35;0.40;;;;;;;8.64;49.00;99518.34;5054573;28;20044;-60
2022/11/13 11:28:43;;;;;;;1.85;0.32;;;;;;;8.71;48.97;99506.25;5049654;28;20108;-62
2022/11/13 11:31:30;;;;;;;1.05;0.20;;;;;;;8.97;48.66;99524.72;5034332;28;20487;-60
2022/11/13 11:34:09;;;;;;;0.47;0.20;;;;;;;9.01;48.25;99523.50;5040320;28;20029;-62
2022/11/13 11:36:45;;;;;;;0.88;0.40;;;;;;;8.94;48.34;99540.13;5052198;28;20052;-61
2022/11/13 11:39:32;;;;;;;1.50;0.50;;;;;;;8.96;48.70;99528.34;5044949;28;20021;-61
2022/11/13 11:42:04;;;;;;;2.20;0.70;;;;;;;8.97;47.93;99538.06;5034091;28;20045;-62
2022/11/13 11:44:47;;;;;;;1.27;0.50;;;;;;;8.69;48.56;99534.03;5034321;28;20049;-61